createdAt,value
2022-10-11T00:00:38.449Z,2.20
2022-10-11T00:03:06.567Z,1.97
2022-10-11T00:05:34.459Z,2.67
2022-10-11T00:08:01.895Z,2.33
2022-10-11T00:10:29.351Z,2.50
2022-10-11T00:12:56.758Z,2.20
2022-10-11T00:15:24.180Z,2.13
2022-10-11T00:17:52.918Z,2.30
2022-10-11T00:20:20.546Z,2.27
2022-10-11T00:22:49.231Z,2.50
2022-10-11T00:25:17.558Z,1.90
2022-10-11T00:27:45.505Z,1.90
2022-10-11T00:30:13.921Z,2.00
2022-10-11T00:32:41.431Z,1.90
2022-10-11T00:35:10.671Z,1.97
2022-10-11T00:37:39.725Z,2.20
2022-10-11T00:40:11.376Z,2.60
2022-10-11T00:42:38.827Z,2.77
2022-10-11T00:45:43.522Z,2.60
2022-10-11T00:48:20.413Z,2.33
2022-10-11T00:50:49.374Z,1.90
2022-10-11T00:53:16.885Z,2.00
2022-10-11T00:55:49.990Z,2.27
2022-10-11T00:58:18.815Z,2.57
2022-10-11T01:00:46.391Z,1.93
2022-10-11T01:03:13.777Z,1.80
2022-10-11T01:05:41.245Z,2.30
2022-10-11T01:08:09.984Z,2.87
2022-10-11T01:10:37.673Z,2.50
2022-10-11T01:13:17.376Z,2.40
2022-10-11T01:15:51.345Z,2.33
2022-10-11T01:18:25.747Z,2.17
2022-10-11T01:21:02.610Z,2.17
2022-10-11T01:24:07.437Z,2.60
2022-10-11T01:27:01.891Z,2.60
2022-10-11T01:29:45.347Z,2.70
2022-10-11T01:32:18.107Z,2.83
2022-10-11T01:34:56.632Z,2.40
2022-10-11T01:37:30.289Z,3.03
2022-10-11T01:40:03.448Z,3.40
2022-10-11T01:42:31.360Z,2.43
2022-10-11T01:45:00.297Z,2.40
2022-10-11T01:47:29.052Z,2.30
2022-10-11T01:49:57.928Z,2.40
2022-10-11T01:52:27.714Z,2.37
2022-10-11T01:55:14.024Z,2.70
2022-10-11T01:58:00.755Z,2.53
2022-10-11T02:00:32.562Z,2.80
2022-10-11T02:03:10.077Z,2.60
2022-10-11T02:05:44.104Z,2.30
2022-10-11T02:08:19.883Z,2.60
2022-10-11T02:10:52.901Z,3.53
2022-10-11T02:13:26.809Z,2.90
2022-10-11T02:15:57.088Z,2.53
2022-10-11T02:18:32.110Z,2.50
2022-10-11T02:21:01.726Z,2.90
2022-10-11T02:23:33.663Z,3.30
2022-10-11T02:26:05.509Z,3.00
2022-10-11T02:28:37.397Z,2.30
2022-10-11T02:31:08.124Z,2.80
2022-10-11T02:33:42.742Z,3.60
2022-10-11T02:36:16.608Z,2.63
2022-10-11T02:38:49.616Z,2.43
2022-10-11T02:41:24.177Z,2.23
2022-10-11T02:43:59.375Z,2.70
2022-10-11T02:46:30.400Z,2.97
2022-10-11T02:49:00.590Z,2.50
2022-10-11T02:51:31.531Z,3.03
2022-10-11T02:53:59.061Z,3.10
2022-10-11T02:56:26.566Z,2.93
2022-10-11T02:58:53.974Z,2.70
2022-10-11T03:01:21.815Z,3.10
2022-10-11T03:03:49.294Z,2.40
2022-10-11T03:06:18.043Z,3.07
2022-10-11T03:08:45.500Z,3.20
2022-10-11T03:11:12.889Z,2.63
2022-10-11T03:13:40.262Z,2.53
2022-10-11T03:16:07.728Z,2.10
2022-10-11T03:18:35.253Z,3.03
2022-10-11T03:21:02.615Z,2.70
2022-10-11T03:23:31.364Z,3.20
2022-10-11T03:25:58.794Z,2.70
2022-10-11T03:28:26.198Z,3.00
2022-10-11T03:30:53.740Z,2.90
2022-10-11T03:33:21.156Z,3.03
2022-10-11T03:35:49.954Z,3.23
2022-10-11T03:38:19.741Z,3.13
2022-10-11T03:40:48.487Z,3.37
2022-10-11T03:43:16.143Z,2.50
2022-10-11T03:45:43.757Z,3.00
2022-10-11T03:48:11.578Z,3.43
2022-10-11T03:50:39.519Z,3.00
2022-10-11T03:53:08.496Z,3.43
2022-10-11T03:55:35.959Z,3.57
2022-10-11T03:58:04.671Z,3.30
2022-10-11T04:00:32.068Z,3.10
2022-10-11T04:03:00.245Z,3.17
2022-10-11T04:05:27.704Z,3.47
2022-10-11T04:07:55.078Z,4.23
2022-10-11T04:10:29.087Z,3.80
2022-10-11T04:12:56.455Z,3.63
2022-10-11T04:15:25.336Z,4.63
2022-10-11T04:17:52.696Z,3.70
2022-10-11T04:20:20.212Z,3.40
2022-10-11T04:22:47.624Z,3.70
2022-10-11T04:25:15.201Z,3.57
2022-10-11T04:27:42.575Z,3.97
2022-10-11T04:30:11.823Z,3.90
2022-10-11T04:32:40.496Z,4.33
2022-10-11T04:35:08.391Z,3.90
2022-10-11T04:37:35.840Z,3.83
2022-10-11T04:40:03.592Z,4.30
2022-10-11T04:42:30.981Z,3.67
2022-10-11T04:44:58.650Z,4.20
2022-10-11T04:47:26.087Z,4.43
2022-10-11T04:49:54.787Z,3.60
2022-10-11T04:52:25.560Z,4.50
2022-10-11T04:54:53.388Z,3.83
2022-10-11T04:57:20.824Z,3.70
2022-10-11T04:59:50.308Z,6.60
2022-10-11T05:02:18.015Z,4.57
2022-10-11T05:04:45.499Z,4.87
2022-10-11T05:07:14.621Z,4.30
2022-10-11T05:09:42.031Z,6.27
2022-10-11T05:12:09.556Z,6.77
2022-10-11T05:14:37.196Z,5.50
2022-10-11T05:17:05.037Z,4.77
2022-10-11T05:19:32.427Z,4.77
2022-10-11T05:21:59.819Z,5.07
2022-10-11T05:24:28.506Z,5.03
2022-10-11T05:26:58.699Z,5.10
2022-10-11T05:29:29.997Z,5.20
2022-10-11T05:31:57.644Z,4.50
2022-10-11T05:34:25.088Z,6.23
2022-10-11T05:36:52.457Z,4.60
2022-10-11T05:39:19.799Z,5.87
2022-10-11T05:41:48.558Z,6.03
2022-10-11T05:44:15.969Z,5.80
2022-10-11T05:46:43.430Z,5.20
2022-10-11T05:49:10.829Z,5.47
2022-10-11T05:51:38.204Z,6.10
2022-10-11T05:54:05.594Z,5.63
2022-10-11T05:56:32.973Z,5.10
2022-10-11T05:59:02.660Z,5.30
2022-10-11T06:01:30.267Z,5.30
2022-10-11T06:03:57.734Z,5.40
2022-10-11T06:06:25.128Z,5.40
2022-10-11T06:08:52.663Z,5.73
2022-10-11T06:11:22.478Z,5.50
2022-10-11T06:14:02.624Z,5.23
2022-10-11T06:16:30.163Z,5.63
2022-10-11T06:18:58.882Z,5.77
2022-10-11T06:21:26.865Z,6.43
2022-10-11T06:24:00.812Z,5.70
2022-10-11T06:26:29.105Z,6.00
2022-10-11T06:28:56.635Z,6.37
2022-10-11T06:31:26.168Z,6.97
2022-10-11T06:33:53.552Z,6.77
2022-10-11T06:36:20.931Z,6.63
2022-10-11T06:38:48.380Z,7.10
2022-10-11T06:41:19.026Z,7.87
2022-10-11T06:43:49.426Z,6.80
2022-10-11T06:46:17.643Z,5.90
2022-10-11T06:48:48.036Z,6.03
2022-10-11T06:51:18.623Z,5.77
2022-10-11T06:53:49.884Z,5.33
2022-10-11T06:56:17.276Z,5.37
2022-10-11T06:58:44.829Z,5.70
2022-10-11T07:01:16.262Z,4.97
2022-10-11T07:03:43.679Z,5.23
2022-10-11T07:06:14.894Z,6.07
2022-10-11T07:08:42.506Z,5.27
2022-10-11T07:11:12.088Z,5.83
2022-10-11T07:13:41.404Z,5.60
2022-10-11T07:16:10.981Z,5.03
2022-10-11T07:18:38.747Z,5.33
2022-10-11T07:21:07.986Z,5.40
2022-10-11T07:23:36.695Z,5.23
2022-10-11T07:26:05.087Z,5.13
2022-10-11T07:28:32.745Z,5.03
2022-10-11T07:31:00.200Z,4.60
2022-10-11T07:33:27.587Z,5.00
2022-10-11T07:35:58.357Z,4.50
2022-10-11T07:38:25.744Z,4.20
2022-10-11T07:40:54.846Z,4.60
2022-10-11T07:43:22.258Z,4.30
2022-10-11T07:45:54.288Z,5.27
2022-10-11T07:48:21.897Z,4.37
2022-10-11T07:50:49.786Z,4.10
2022-10-11T07:53:17.247Z,5.27
2022-10-11T07:55:44.673Z,5.43
2022-10-11T07:58:14.149Z,4.23
2022-10-11T08:00:42.689Z,4.10
2022-10-11T08:03:10.444Z,3.00
2022-10-11T08:05:39.057Z,1.27
2022-10-11T08:08:06.515Z,2.53
2022-10-11T08:10:38.460Z,2.23
2022-10-11T08:13:06.153Z,2.40
2022-10-11T08:15:35.030Z,2.63
2022-10-11T08:18:02.612Z,3.20
2022-10-11T08:20:31.125Z,2.67
2022-10-11T08:22:58.563Z,2.23
2022-10-11T08:25:26.051Z,2.93
2022-10-11T08:27:53.434Z,3.70
2022-10-11T08:30:20.860Z,3.60
2022-10-11T08:32:49.553Z,4.20
2022-10-11T08:35:16.907Z,4.00
2022-10-11T08:37:44.335Z,4.30
2022-10-11T08:40:16.598Z,4.20
2022-10-11T08:42:46.482Z,3.40
2022-10-11T08:45:33.312Z,3.83
2022-10-11T08:48:14.379Z,4.00
2022-10-11T08:50:43.649Z,3.80
2022-10-11T08:53:19.667Z,3.27
2022-10-11T08:55:51.670Z,3.60
2022-10-11T08:58:22.912Z,3.50
2022-10-11T09:00:53.755Z,4.63
2022-10-11T09:03:31.808Z,4.20
2022-10-11T09:06:09.090Z,3.53
2022-10-11T09:08:49.403Z,4.30
2022-10-11T09:11:26.718Z,4.10
2022-10-11T09:14:07.275Z,3.70
2022-10-11T09:16:48.501Z,4.40
2022-10-11T09:19:36.466Z,3.87
2022-10-11T09:22:13.173Z,3.67
2022-10-11T09:24:53.295Z,3.80
2022-10-11T09:27:49.937Z,3.40
2022-10-11T09:30:16.078Z,3.33
2022-10-11T09:32:47.323Z,3.67
2022-10-11T09:35:18.380Z,3.43
2022-10-11T09:37:52.195Z,3.83
2022-10-11T09:40:33.811Z,3.17
2022-10-11T09:43:01.234Z,3.73
2022-10-11T09:45:28.647Z,3.33
2022-10-11T09:47:58.623Z,3.27
2022-10-11T09:50:30.584Z,3.17
2022-10-11T09:53:00.329Z,3.40
2022-10-11T09:55:33.846Z,3.23
2022-10-11T09:58:01.707Z,3.30
2022-10-11T10:00:33.455Z,3.50
2022-10-11T10:03:02.482Z,3.60
2022-10-11T10:05:32.473Z,3.43
2022-10-11T10:08:05.016Z,2.97
2022-10-11T10:10:38.545Z,3.43
2022-10-11T10:13:07.950Z,2.87
2022-10-11T10:15:37.656Z,3.23
2022-10-11T10:18:10.379Z,4.73
2022-10-11T10:20:39.184Z,3.13
2022-10-11T10:23:10.846Z,2.80
2022-10-11T10:25:43.593Z,2.97
2022-10-11T10:28:21.162Z,2.60
2022-10-11T10:30:54.499Z,3.00
2022-10-11T10:33:23.849Z,2.57
2022-10-11T10:35:57.505Z,2.63
2022-10-11T10:38:30.075Z,3.10
2022-10-11T10:41:00.030Z,3.13
2022-10-11T10:43:30.578Z,2.37
2022-10-11T10:46:18.314Z,2.63
2022-10-11T10:51:54.689Z,7.87
2022-10-11T10:54:36.178Z,2.63
2022-10-11T10:57:11.841Z,2.53
2022-10-11T10:59:55.089Z,2.60
2022-10-11T11:02:40.367Z,3.00
2022-10-11T11:05:18.768Z,2.70
2022-10-11T11:07:53.702Z,3.47
2022-10-11T11:10:23.800Z,2.93
2022-10-11T11:13:05.199Z,1.87
2022-10-11T11:15:38.508Z,2.23
2022-10-11T11:18:22.120Z,2.90
2022-10-11T11:21:02.473Z,2.30
2022-10-11T11:23:40.296Z,3.27
2022-10-11T11:26:13.810Z,1.97
2022-10-11T11:28:51.019Z,2.57
2022-10-11T11:31:36.452Z,2.60
2022-10-11T11:34:11.267Z,2.17
2022-10-11T11:36:44.018Z,2.70
2022-10-11T11:39:17.760Z,3.23
2022-10-11T11:41:51.825Z,2.37
2022-10-11T11:44:27.516Z,3.70
2022-10-11T11:47:01.426Z,7.13
2022-10-11T11:49:32.814Z,2.20
2022-10-11T11:52:01.153Z,2.37
2022-10-11T11:54:43.305Z,2.00
2022-10-11T11:57:24.554Z,2.13
2022-10-11T11:59:57.857Z,4.63
2022-10-11T12:02:36.582Z,3.37
2022-10-11T12:05:06.984Z,1.90
2022-10-11T12:07:49.786Z,1.93
2022-10-11T12:10:26.046Z,2.50
2022-10-11T12:13:07.080Z,3.13
2022-10-11T12:15:35.065Z,3.00
2022-10-11T12:18:15.127Z,3.03
2022-10-11T12:20:44.661Z,2.10
2022-10-11T12:23:50.561Z,2.17
2022-10-11T12:26:44.003Z,2.20
2022-10-11T12:29:43.551Z,2.83
2022-10-11T12:32:47.899Z,2.40
2022-10-11T12:35:39.965Z,3.40
2022-10-11T12:38:16.563Z,2.47
2022-10-11T12:40:47.060Z,3.07
2022-10-11T12:43:33.635Z,2.40
2022-10-11T12:46:34.094Z,2.87
2022-10-11T12:49:16.483Z,2.20
2022-10-11T12:51:56.578Z,2.03
2022-10-11T12:55:02.903Z,2.67
2022-10-11T12:58:07.801Z,2.30
2022-10-11T13:00:46.654Z,2.10
2022-10-11T13:03:32.222Z,2.30
2022-10-11T13:06:02.022Z,1.87
2022-10-11T13:08:33.403Z,2.20
2022-10-11T13:11:04.262Z,2.00
2022-10-11T13:13:35.561Z,2.00
2022-10-11T13:16:10.031Z,2.00
2022-10-11T13:18:37.503Z,1.90
2022-10-11T13:21:20.290Z,1.70
2022-10-11T13:23:50.646Z,2.30
2022-10-11T13:26:18.110Z,3.23
2022-10-11T13:28:46.122Z,2.17
2022-10-11T13:31:14.963Z,2.47
2022-10-11T13:33:45.795Z,3.17
2022-10-11T13:36:17.589Z,2.00
2022-10-11T13:38:53.813Z,1.80
2022-10-11T13:41:21.952Z,2.03
2022-10-11T13:43:50.220Z,3.70
2022-10-11T13:46:22.501Z,2.07
2022-10-11T13:49:00.476Z,2.03
2022-10-11T13:51:32.508Z,2.10
2022-10-11T13:54:03.001Z,1.73
2022-10-11T13:56:33.090Z,2.57
2022-10-11T13:59:01.585Z,1.70
2022-10-11T14:01:39.209Z,1.90
2022-10-11T14:04:10.144Z,3.20
2022-10-11T14:06:43.941Z,2.50
2022-10-11T14:09:20.962Z,9.27
2022-10-11T14:11:48.667Z,6.30
2022-10-11T14:14:41.260Z,4.03
2022-10-11T14:17:16.360Z,3.53
2022-10-11T14:19:44.528Z,3.23
2022-10-11T14:22:15.849Z,2.00
2022-10-11T14:24:43.619Z,2.03
2022-10-11T14:27:17.665Z,3.00
2022-10-11T14:30:00.314Z,1.70
2022-10-11T14:32:36.353Z,2.30
2022-10-11T14:35:04.710Z,1.67
2022-10-11T14:37:32.311Z,4.27
2022-10-11T14:39:59.772Z,2.67
2022-10-11T14:42:27.138Z,1.97
2022-10-11T14:44:54.550Z,2.40
2022-10-11T14:47:21.946Z,2.00
2022-10-11T14:49:50.958Z,1.63
2022-10-11T14:52:18.352Z,1.90
2022-10-11T14:54:45.725Z,2.00
2022-10-11T14:57:15.260Z,2.23
2022-10-11T14:59:42.685Z,2.10
2022-10-11T15:02:13.155Z,2.83
2022-10-11T15:04:40.529Z,2.00
2022-10-11T15:07:09.474Z,2.57
2022-10-11T15:09:36.843Z,1.80
2022-10-11T15:12:04.587Z,1.57
2022-10-11T15:14:31.959Z,1.77
2022-10-11T15:16:59.349Z,2.27
2022-10-11T15:19:26.781Z,3.23
2022-10-11T15:21:54.272Z,2.40
2022-10-11T15:24:22.971Z,2.40
2022-10-11T15:26:50.615Z,2.33
2022-10-11T15:29:20.301Z,2.70
2022-10-11T15:31:49.255Z,2.20
2022-10-11T15:34:17.251Z,2.17
2022-10-11T15:36:44.739Z,2.27
2022-10-11T15:39:27.362Z,2.67
2022-10-11T15:41:54.831Z,2.80
2022-10-11T15:44:22.246Z,2.93
2022-10-11T15:46:49.707Z,2.80
2022-10-11T15:49:18.164Z,2.40
2022-10-11T15:51:45.558Z,1.97
2022-10-11T15:54:12.946Z,2.57
2022-10-11T15:56:41.646Z,2.60
2022-10-11T15:59:11.195Z,2.80
2022-10-11T16:01:38.608Z,2.60
2022-10-11T16:04:06.270Z,3.47
2022-10-11T16:06:33.687Z,3.07
2022-10-11T16:09:01.100Z,3.00
2022-10-11T16:11:28.499Z,3.30
2022-10-11T16:13:57.383Z,2.30
2022-10-11T16:16:24.743Z,3.60
2022-10-11T16:18:52.161Z,3.43
2022-10-11T16:21:20.817Z,3.50
2022-10-11T16:23:48.277Z,4.27
2022-10-11T16:26:16.904Z,4.10
2022-10-11T16:28:44.567Z,3.63
2022-10-11T16:31:18.074Z,14.90
2022-10-11T16:33:48.716Z,5.30
2022-10-11T16:36:35.448Z,4.13
2022-10-11T16:39:07.100Z,4.03
2022-10-11T16:41:34.619Z,4.23
2022-10-11T16:44:02.306Z,4.50
2022-10-11T16:46:32.219Z,4.40
2022-10-11T16:48:59.926Z,4.63
2022-10-11T16:51:27.361Z,4.47
2022-10-11T16:53:54.768Z,4.43
2022-10-11T16:56:24.064Z,4.27
2022-10-11T16:58:52.223Z,5.63
2022-10-11T17:01:20.059Z,5.33
2022-10-11T17:03:49.456Z,4.03
2022-10-11T17:06:17.374Z,4.30
2022-10-11T17:08:44.794Z,4.90
2022-10-11T17:11:12.283Z,4.87
2022-10-11T17:13:39.676Z,5.10
2022-10-11T17:16:08.487Z,6.00
2022-10-11T17:18:36.888Z,5.87
2022-10-11T17:21:08.256Z,6.53
2022-10-11T17:26:10.847Z,6.97
2022-10-11T17:28:39.423Z,6.80
2022-10-11T17:31:08.976Z,6.13
2022-10-11T17:33:36.883Z,5.53
2022-10-11T17:36:14.824Z,5.73
2022-10-11T17:38:42.339Z,6.07
2022-10-11T17:41:11.006Z,6.07
2022-10-11T17:43:39.057Z,5.27
2022-10-11T17:46:08.826Z,6.60
2022-10-11T17:48:39.195Z,6.47
2022-10-11T17:51:09.836Z,5.70
2022-10-11T17:53:37.955Z,6.87
2022-10-11T17:56:06.683Z,6.43
2022-10-11T17:58:34.345Z,5.77
2022-10-11T18:01:03.340Z,9.70
2022-10-11T18:03:30.979Z,9.93
2022-10-11T18:05:58.507Z,8.70
2022-10-11T18:08:27.444Z,9.13
2022-10-11T18:10:54.801Z,10.17
2022-10-11T18:13:22.358Z,9.33
2022-10-11T18:15:53.486Z,12.03
2022-10-11T18:18:21.155Z,10.30
2022-10-11T18:20:49.619Z,11.83
2022-10-11T18:23:19.018Z,8.93
2022-10-11T18:25:49.373Z,10.70
2022-10-11T18:28:18.002Z,9.63
2022-10-11T18:30:47.417Z,10.60
2022-10-11T18:33:16.579Z,10.87
2022-10-11T18:35:44.186Z,10.20
2022-10-11T18:38:11.641Z,9.47
2022-10-11T18:40:44.728Z,10.07
2022-10-11T18:43:15.648Z,9.30
2022-10-11T18:45:43.045Z,9.23
2022-10-11T18:48:10.476Z,9.53
2022-10-11T18:50:37.942Z,10.03
2022-10-11T18:55:38.218Z,10.67
2022-10-11T18:58:05.615Z,10.10
2022-10-11T19:00:42.421Z,11.10
2022-10-11T19:03:09.906Z,10.70
2022-10-11T19:05:39.277Z,10.90
2022-10-11T19:08:06.993Z,11.10
2022-10-11T19:10:35.061Z,11.27
2022-10-11T19:13:02.543Z,11.27
2022-10-11T19:15:30.034Z,10.60
2022-10-11T19:17:58.766Z,10.90
2022-10-11T19:20:26.137Z,11.33
2022-10-11T19:22:53.587Z,9.93
2022-10-11T19:25:20.992Z,11.33
2022-10-11T19:27:48.395Z,11.23
2022-10-11T19:30:15.800Z,10.40
2022-10-11T19:32:43.381Z,10.47
2022-10-11T19:35:19.036Z,11.67
2022-10-11T19:37:47.362Z,11.53
2022-10-11T19:40:14.816Z,12.40
2022-10-11T19:42:42.235Z,11.43
2022-10-11T19:45:10.280Z,11.83
2022-10-11T19:47:37.889Z,11.10
2022-10-11T19:50:06.062Z,11.33
2022-10-11T19:52:34.886Z,11.33
2022-10-11T19:55:02.355Z,12.47
2022-10-11T19:57:30.078Z,12.63
2022-10-11T19:59:58.440Z,13.70
2022-10-11T20:02:25.834Z,13.73
2022-10-11T20:04:53.478Z,12.10
2022-10-11T20:07:20.903Z,13.13
2022-10-11T20:09:49.705Z,12.27
2022-10-11T20:12:17.080Z,13.00
2022-10-11T20:14:44.518Z,14.30
2022-10-11T20:17:12.131Z,12.67
2022-10-11T20:19:39.519Z,13.30
2022-10-11T20:22:08.804Z,12.90
2022-10-11T20:24:36.205Z,13.00
2022-10-11T20:27:06.288Z,14.37
2022-10-11T20:29:33.730Z,14.10
2022-10-11T20:32:01.199Z,15.40
2022-10-11T20:34:28.829Z,15.33
2022-10-11T20:36:56.251Z,18.00
2022-10-11T20:39:23.808Z,16.80
2022-10-11T20:41:51.465Z,17.73
2022-10-11T20:44:20.154Z,18.00
2022-10-11T20:46:47.603Z,15.43
2022-10-11T20:49:15.241Z,17.27
2022-10-11T20:51:43.744Z,17.83
2022-10-11T20:54:13.529Z,18.90
2022-10-11T20:56:41.496Z,17.93
2022-10-11T20:59:10.075Z,19.23
2022-10-11T21:01:40.967Z,18.47
2022-10-11T21:04:11.287Z,18.03
2022-10-11T21:06:38.763Z,19.67
2022-10-11T21:09:06.143Z,20.13
2022-10-11T21:11:35.479Z,20.47
2022-10-11T21:14:05.082Z,20.93
2022-10-11T21:16:32.649Z,20.57
2022-10-11T21:19:02.809Z,20.60
2022-10-11T21:21:31.367Z,20.60
2022-10-11T21:24:00.196Z,19.70
2022-10-11T21:26:29.091Z,20.13
2022-10-11T21:28:59.160Z,20.03
2022-10-11T21:31:32.923Z,19.97
2022-10-11T21:34:03.932Z,20.13
2022-10-11T21:36:31.459Z,19.57
2022-10-11T21:38:59.103Z,20.07
2022-10-11T21:41:29.073Z,20.77
2022-10-11T21:43:56.995Z,20.60
2022-10-11T21:46:41.645Z,20.83
2022-10-11T21:49:15.231Z,21.10
2022-10-11T21:51:43.930Z,20.17
2022-10-11T21:54:11.344Z,21.17
2022-10-11T21:56:39.348Z,17.03
2022-10-11T21:59:11.094Z,17.73
2022-10-11T22:01:41.929Z,20.30
2022-10-11T22:04:11.055Z,19.73
2022-10-11T22:06:41.062Z,19.47
2022-10-11T22:09:09.739Z,18.90
2022-10-11T22:11:38.674Z,19.30
2022-10-11T22:14:06.237Z,18.43
2022-10-11T22:16:34.925Z,19.37
2022-10-11T22:19:02.527Z,19.63
2022-10-11T22:21:30.153Z,18.97
2022-10-11T22:23:58.899Z,18.93
2022-10-11T22:26:29.836Z,19.03
2022-10-11T22:28:57.461Z,17.93
2022-10-11T22:31:24.952Z,18.23
2022-10-11T22:33:54.756Z,18.37
2022-10-11T22:36:24.130Z,17.70
2022-10-11T22:38:52.148Z,18.00
2022-10-11T22:41:21.165Z,18.00
2022-10-11T22:43:48.780Z,16.52
2022-10-11T22:46:16.393Z,17.47
2022-10-11T22:48:43.847Z,17.10
2022-10-11T22:51:11.249Z,15.47
2022-10-11T22:53:39.661Z,15.90
2022-10-11T22:56:08.740Z,16.70
2022-10-11T22:58:37.487Z,16.23
2022-10-11T23:01:09.449Z,16.10
2022-10-11T23:03:37.141Z,17.93
2022-10-11T23:06:05.032Z,17.70
2022-10-11T23:08:32.695Z,17.07
2022-10-11T23:11:03.493Z,17.27
2022-10-11T23:13:30.887Z,18.43
2022-10-11T23:15:59.692Z,18.03
2022-10-11T23:18:27.080Z,17.00
2022-10-11T23:20:54.470Z,18.40
2022-10-11T23:23:21.824Z,18.43
2022-10-11T23:25:49.230Z,20.00
2022-10-11T23:28:16.662Z,18.00
2022-10-11T23:30:44.099Z,17.17
2022-10-11T23:33:12.839Z,17.83
2022-10-11T23:35:40.293Z,18.40
2022-10-11T23:38:07.804Z,18.80
2022-10-11T23:40:37.068Z,19.00
2022-10-11T23:43:04.423Z,17.50
2022-10-11T23:45:31.787Z,16.27
2022-10-11T23:47:59.246Z,17.13
2022-10-11T23:50:27.974Z,15.50
2022-10-11T23:52:56.996Z,15.97
2022-10-11T23:55:24.367Z,18.33
2022-10-11T23:57:51.899Z,16.93
